Time;durP1;ratioP1;P1;durP2;ratioP2;P2;SDS_P1;SDS_P2;PMS_P1;PMS_P2;Temp;Humidity;BMP_temperature;BMP_pressure;BME280_temperature;BME280_humidity;BME280_pressure;Samples;Min_cycle;Max_cycle;Signal;HPM_P1;HPM_P2
2024/03/12 00:02:10;;;;;;;156.17;52.13;;;;;;;;;;5053194;28;20041;-57
2024/03/12 00:04:35;;;;;;;156.20;50.50;;;;;;;;;;5053037;28;20040;-55
2024/03/12 00:07:01;;;;;;;168.07;53.53;;;;;;;;;;5055355;28;20065;-57
2024/03/12 00:09:27;;;;;;;155.90;51.00;;;;;;;;;;5057296;28;20025;-55
2024/03/12 00:11:52;;;;;;;149.82;51.80;;;;;;;;;;5068468;28;20040;-53
2024/03/12 00:14:19;;;;;;;152.73;50.77;;;;;;;;;;5057327;28;20037;-57
2024/03/12 00:16:44;;;;;;;;;;;;;;;;;;5057323;28;20029;-56
2024/03/12 00:19:10;;;;;;;143.67;50.07;;;;;;;;;;5056248;28;19920;-54
2024/03/12 00:21:37;;;;;;;151.33;49.87;;;;;;;;;;5065621;28;20034;-53
2024/03/12 00:24:05;;;;;;;148.87;49.87;;;;;;;;;;5057025;28;20033;-55
2024/03/12 00:26:32;;;;;;;169.53;54.50;;;;;;;;;;5056849;28;20282;-58
2024/03/12 00:28:58;;;;;;;159.67;50.40;;;;;;;;;;5056437;28;20262;-57
2024/03/12 00:31:24;;;;;;;132.68;47.58;;;;;;;;;;5065423;28;20358;-58
2024/03/12 00:33:50;;;;;;;129.23;48.72;;;;;;;;;;5067346;28;20029;-56
2024/03/12 00:36:16;;;;;;;151.03;49.50;;;;;;;;;;5056883;28;20040;-52
2024/03/12 00:38:42;;;;;;;138.68;49.63;;;;;;;;;;5059643;28;20267;-56
2024/03/12 00:41:07;;;;;;;157.27;51.57;;;;;;;;;;5059243;28;20040;-56
2024/03/12 00:43:32;;;;;;;162.30;50.80;;;;;;;;;;5059773;28;20036;-57
2024/03/12 00:45:59;;;;;;;143.23;49.20;;;;;;;;;;5056682;28;20022;-56
2024/03/12 00:48:27;;;;;;;154.87;48.00;;;;;;;;;;5056521;28;20089;-54
2024/03/12 00:50:53;;;;;;;164.87;51.83;;;;;;;;;;5060608;28;20405;-53
2024/03/12 00:53:19;;;;;;;145.88;47.30;;;;;;;;;;5059498;28;20289;-56
2024/03/12 00:55:47;;;;;;;144.13;47.63;;;;;;;;;;5065488;28;20041;-54
2024/03/12 00:58:15;;;;;;;139.87;49.97;;;;;;;;;;5055953;28;20263;-55
2024/03/12 01:00:41;;;;;;;149.00;47.73;;;;;;;;;;5059145;28;20277;-54
2024/03/12 01:03:08;;;;;;;149.63;48.57;;;;;;;;;;5057993;28;20270;-51
2024/03/12 01:05:36;;;;;;;134.43;46.67;;;;;;;;;;5055990;28;20034;-55
2024/03/12 01:08:03;;;;;;;117.83;44.93;;;;;;;;;;5056126;28;20263;-57
2024/03/12 01:10:30;;;;;;;144.53;48.07;;;;;;;;;;5057138;28;20250;-55
2024/03/12 01:12:56;;;;;;;129.20;47.90;;;;;;;;;;5064282;28;20271;-55
2024/03/12 01:15:23;;;;;;;125.80;48.28;;;;;;;;;;5056150;28;20266;-55
2024/03/12 01:17:49;;;;;;;122.07;46.83;;;;;;;;;;5055347;28;20036;-54
2024/03/12 01:20:16;;;;;;;131.57;46.42;;;;;;;;;;5056022;28;20292;-55
2024/03/12 01:22:42;;;;;;;127.72;44.47;;;;;;;;;;5055450;28;20067;-55
2024/03/12 01:25:10;;;;;;;138.82;47.95;;;;;;;;;;5055757;28;20042;-54
2024/03/12 01:27:36;;;;;;;135.77;48.60;;;;;;;;;;5060042;28;20039;-56
2024/03/12 01:30:06;;;;;;;131.05;49.50;;;;;;;;;;5059492;28;20263;-54
2024/03/12 01:32:31;;;;;;;137.27;48.90;;;;;;;;;;5066383;28;20472;-56
2024/03/12 01:34:57;;;;;;;124.13;46.97;;;;;;;;;;5067922;28;20036;-54
2024/03/12 01:37:24;;;;;;;144.77;48.78;;;;;;;;;;5057364;28;20089;-55
2024/03/12 01:39:52;;;;;;;122.70;49.30;;;;;;;;;;5062249;28;20047;-55
2024/03/12 01:42:21;;;;;;;128.40;48.33;;;;;;;;;;5063430;28;20266;-56
2024/03/12 01:44:47;;;;;;;148.30;52.50;;;;;;;;;;5055492;28;20302;-55
2024/03/12 01:47:13;;;;;;;164.40;51.37;;;;;;;;;;5055095;28;20289;-55
2024/03/12 01:49:39;;;;;;;156.68;52.53;;;;;;;;;;5055366;28;20258;-56
2024/03/12 01:52:07;;;;;;;149.23;50.03;;;;;;;;;;5055929;28;20033;-55
2024/03/12 01:54:33;;;;;;;140.32;46.60;;;;;;;;;;5057541;28;20037;-52
2024/03/12 01:56:58;;;;;;;149.37;50.30;;;;;;;;;;5055304;28;20029;-54
2024/03/12 01:59:24;;;;;;;130.75;49.00;;;;;;;;;;5054243;28;20032;-55
2024/03/12 02:01:57;;;;;;;138.32;46.72;;;;;;;;;;5056398;28;20073;-55
2024/03/12 02:04:23;;;;;;;138.57;48.23;;;;;;;;;;5062466;28;20033;-52
2024/03/12 02:06:48;;;;;;;126.20;43.77;;;;;;;;;;5064151;28;20312;-55
2024/03/12 02:09:14;;;;;;;132.87;43.90;;;;;;;;;;5055148;28;20040;-55
2024/03/12 02:11:40;;;;;;;139.02;43.72;;;;;;;;;;5064330;28;20262;-54
2024/03/12 02:14:07;;;;;;;122.17;42.83;;;;;;;;;;5060782;28;20037;-55
2024/03/12 02:16:33;;;;;;;121.80;41.27;;;;;;;;;;5054964;28;20041;-56
2024/03/12 02:18:58;;;;;;;129.13;43.25;;;;;;;;;;5056006;28;20279;-54
2024/03/12 02:21:24;;;;;;;124.90;44.57;;;;;;;;;;5054481;28;20037;-57
2024/03/12 02:23:53;;;;;;;121.17;44.07;;;;;;;;;;5059518;28;20024;-54
2024/03/12 02:26:18;;;;;;;115.97;42.77;;;;;;;;;;5055945;28;20262;-57
2024/03/12 02:28:43;;;;;;;147.27;43.07;;;;;;;;;;5053736;28;20262;-53
2024/03/12 02:31:09;;;;;;;133.70;42.63;;;;;;;;;;5060052;28;20334;-55
2024/03/12 02:33:35;;;;;;;129.00;44.50;;;;;;;;;;5070688;28;20063;-56
2024/03/12 02:36:01;;;;;;;137.45;46.40;;;;;;;;;;5054721;28;20194;-55
2024/03/12 02:38:28;;;;;;;123.03;40.27;;;;;;;;;;5055647;28;20033;-56
2024/03/12 02:40:54;;;;;;;122.38;40.95;;;;;;;;;;5065986;28;20275;-55
2024/03/12 02:43:19;;;;;;;127.40;44.53;;;;;;;;;;5061547;28;20062;-56
2024/03/12 02:45:46;;;;;;;110.90;40.50;;;;;;;;;;5054346;28;20290;-55
2024/03/12 02:48:12;;;;;;;120.17;41.50;;;;;;;;;;5054797;28;20037;-55
2024/03/12 02:50:39;;;;;;;128.83;41.90;;;;;;;;;;5057252;28;20254;-58
2024/03/12 02:53:06;;;;;;;137.63;44.63;;;;;;;;;;5061615;28;20266;-54
2024/03/12 02:55:33;;;;;;;120.87;40.60;;;;;;;;;;5055606;28;20037;-56
2024/03/12 02:57:58;;;;;;;122.65;43.08;;;;;;;;;;5054116;28;20270;-51
2024/03/12 03:00:24;;;;;;;106.50;40.33;;;;;;;;;;5063439;28;20044;-55
2024/03/12 03:02:54;;;;;;;110.43;39.47;;;;;;;;;;5054840;28;20065;-55
2024/03/12 03:05:19;;;;;;;134.75;41.20;;;;;;;;;;5053538;28;20057;-55
2024/03/12 03:07:48;;;;;;;128.37;40.27;;;;;;;;;;5053641;28;20029;-56
2024/03/12 03:10:14;;;;;;;113.18;38.97;;;;;;;;;;5054216;28;20261;-57
2024/03/12 03:12:40;;;;;;;117.65;42.53;;;;;;;;;;5066090;28;20026;-56
2024/03/12 03:15:07;;;;;;;114.78;39.75;;;;;;;;;;5054396;28;20068;-54
2024/03/12 03:17:33;;;;;;;127.05;42.75;;;;;;;;;;5053916;28;20041;-58
2024/03/12 03:19:58;;;;;;;130.63;38.17;;;;;;;;;;5054353;28;20089;-57
2024/03/12 03:22:24;;;;;;;111.78;38.30;;;;;;;;;;5063605;28;20034;-56
2024/03/12 03:24:49;;;;;;;122.25;40.38;;;;;;;;;;5053673;28;20041;-55
2024/03/12 03:27:16;;;;;;;117.43;39.40;;;;;;;;;;5066413;28;20063;-55
2024/03/12 03:29:42;;;;;;;108.13;36.77;;;;;;;;;;5053790;28;20026;-56
2024/03/12 03:32:08;;;;;;;120.63;40.58;;;;;;;;;;5053759;28;20261;-55
2024/03/12 03:34:34;;;;;;;110.37;37.37;;;;;;;;;;5059442;28;20033;-56
2024/03/12 03:36:59;;;;;;;126.20;38.03;;;;;;;;;;5057944;28;20286;-57
2024/03/12 03:39:26;;;;;;;118.30;36.35;;;;;;;;;;5057313;28;20385;-57
2024/03/12 03:41:52;;;;;;;110.90;36.22;;;;;;;;;;5067043;28;20033;-56
2024/03/12 03:44:17;;;;;;;117.95;37.50;;;;;;;;;;5058121;28;20037;-57
2024/03/12 03:46:43;;;;;;;126.97;37.78;;;;;;;;;;5062966;28;20041;-57
2024/03/12 03:49:08;;;;;;;113.30;35.77;;;;;;;;;;5057216;28;20092;-58
2024/03/12 03:51:34;;;;;;;106.37;34.57;;;;;;;;;;5060547;28;20321;-60
2024/03/12 03:54:01;;;;;;;116.10;36.60;;;;;;;;;;5057502;28;20064;-57
2024/03/12 03:56:27;;;;;;;113.45;37.30;;;;;;;;;;5057449;28;20033;-54
2024/03/12 03:58:56;;;;;;;112.32;35.80;;;;;;;;;;5057499;28;20038;-58
2024/03/12 04:01:23;;;;;;;108.97;37.20;;;;;;;;;;5057118;28;20033;-62
2024/03/12 04:03:51;;;;;;;115.95;36.17;;;;;;;;;;5057133;28;20035;-59
2024/03/12 04:06:21;;;;;;;101.78;34.70;;;;;;;;;;5057418;28;20101;-57
2024/03/12 04:08:55;;;;;;;92.93;35.42;;;;;;;;;;5057419;28;20065;-58
2024/03/12 04:11:21;;;;;;;109.43;34.53;;;;;;;;;;5059161;28;20041;-59
2024/03/12 04:13:54;;;;;;;92.53;31.67;;;;;;;;;;5065104;28;20064;-59
2024/03/12 04:16:20;;;;;;;116.38;35.45;;;;;;;;;;5057088;28;20032;-59
2024/03/12 04:18:45;;;;;;;89.97;31.40;;;;;;;;;;5057162;28;20022;-58
2024/03/12 04:21:14;;;;;;;97.50;32.60;;;;;;;;;;5064314;28;20072;-58
2024/03/12 04:23:42;;;;;;;96.63;32.03;;;;;;;;;;5064080;28;20040;-60
2024/03/12 04:26:08;;;;;;;104.63;33.30;;;;;;;;;;5045491;28;20067;-57
2024/03/12 04:28:33;;;;;;;106.53;33.93;;;;;;;;;;5057048;28;20029;-60
2024/03/12 04:30:58;;;;;;;107.13;34.70;;;;;;;;;;5057042;28;20294;-59
2024/03/12 04:33:24;;;;;;;110.18;36.60;;;;;;;;;;5059122;28;20034;-60
2024/03/12 04:35:50;;;;;;;122.00;35.05;;;;;;;;;;5055609;28;20064;-59
2024/03/12 04:38:18;;;;;;;131.68;35.83;;;;;;;;;;5056580;28;20029;-60
2024/03/12 04:40:47;;;;;;;126.38;38.20;;;;;;;;;;5056618;28;20034;-60
2024/03/12 04:43:13;;;;;;;123.88;36.90;;;;;;;;;;5056629;28;20036;-60
2024/03/12 04:45:40;;;;;;;114.75;37.00;;;;;;;;;;5056928;28;20052;-61
2024/03/12 04:48:07;;;;;;;124.45;38.72;;;;;;;;;;5056539;28;20053;-58
2024/03/12 04:50:33;;;;;;;121.83;37.43;;;;;;;;;;5056456;28;20036;-60
2024/03/12 04:52:58;;;;;;;125.10;37.13;;;;;;;;;;5065304;28;20270;-59
2024/03/12 04:55:24;;;;;;;127.78;36.55;;;;;;;;;;5056127;28;20038;-59
2024/03/12 04:57:49;;;;;;;137.52;40.63;;;;;;;;;;5053988;28;20029;-58
2024/03/12 05:00:18;;;;;;;134.50;37.63;;;;;;;;;;5059305;28;20033;-59
2024/03/12 05:02:49;;;;;;;117.80;39.55;;;;;;;;;;5059504;28;20030;-60
2024/03/12 05:05:17;;;;;;;144.25;38.05;;;;;;;;;;5055574;28;20068;-60
2024/03/12 05:07:43;;;;;;;118.82;39.30;;;;;;;;;;5056077;28;20021;-60
2024/03/12 05:10:08;;;;;;;134.13;39.93;;;;;;;;;;5056147;28;20030;-60
2024/03/12 05:12:34;;;;;;;124.40;37.00;;;;;;;;;;5057274;28;20262;-60
2024/03/12 05:14:59;;;;;;;127.27;38.73;;;;;;;;;;5055971;28;20030;-59
2024/03/12 05:17:25;;;;;;;132.40;37.83;;;;;;;;;;5056144;28;20034;-59
2024/03/12 05:19:50;;;;;;;150.57;38.27;;;;;;;;;;5061975;28;20060;-57
2024/03/12 05:22:16;;;;;;;151.95;41.22;;;;;;;;;;5069500;28;20094;-56
2024/03/12 05:24:41;;;;;;;132.13;39.83;;;;;;;;;;5060659;28;20043;-60
2024/03/12 05:27:07;;;;;;;125.03;36.57;;;;;;;;;;5055830;28;20037;-59
2024/03/12 05:29:43;;;;;;;140.85;38.70;;;;;;;;;;5056014;28;20473;-58
2024/03/12 05:32:18;;;;;;;149.00;37.42;;;;;;;;;;5055641;28;20028;-58
2024/03/12 05:34:47;;;;;;;138.35;37.88;;;;;;;;;;5060891;28;20033;-58
2024/03/12 05:37:28;;;;;;;158.73;39.30;;;;;;;;;;5056864;28;20030;-61
2024/03/12 05:40:10;;;;;;;127.82;35.80;;;;;;;;;;5059534;28;20097;-60
2024/03/12 05:48:07;;;;;;;150.02;39.10;;;;;;;;;;5051123;28;20053;-59
2024/03/12 05:50:33;;;;;;;137.85;38.63;;;;;;;;;;5044790;28;20038;-60
2024/03/12 05:52:58;;;;;;;139.93;39.50;;;;;;;;;;5055420;28;20041;-59
2024/03/12 05:55:24;;;;;;;144.63;36.92;;;;;;;;;;5051636;28;20022;-59
2024/03/12 05:57:50;;;;;;;142.27;39.53;;;;;;;;;;5052249;28;20038;-60
2024/03/12 06:00:15;;;;;;;129.77;37.80;;;;;;;;;;5053496;28;20045;-59
2024/03/12 06:02:41;;;;;;;135.07;35.63;;;;;;;;;;5044293;28;20054;-59
2024/03/12 06:05:08;;;;;;;132.80;36.67;;;;;;;;;;5052955;28;20044;-60
2024/03/12 06:07:33;;;;;;;135.57;37.20;;;;;;;;;;5048941;28;20043;-59
2024/03/12 06:09:58;;;;;;;150.87;38.97;;;;;;;;;;5055257;28;20056;-59
2024/03/12 06:12:24;;;;;;;135.40;37.30;;;;;;;;;;5049360;28;20025;-57
2024/03/12 06:14:49;;;;;;;145.27;37.73;;;;;;;;;;5054736;28;20029;-58
2024/03/12 06:17:15;;;;;;;143.00;38.33;;;;;;;;;;5049515;28;20033;-59
2024/03/12 06:19:40;;;;;;;133.43;37.37;;;;;;;;;;5054890;28;20274;-62
2024/03/12 06:22:05;;;;;;;123.93;36.20;;;;;;;;;;5052463;28;20126;-58
2024/03/12 06:24:31;;;;;;;128.20;35.33;;;;;;;;;;5054824;28;20053;-59
2024/03/12 06:26:57;;;;;;;133.67;37.73;;;;;;;;;;5055545;28;20033;-60
2024/03/12 06:29:22;;;;;;;167.00;43.27;;;;;;;;;;5054163;28;20330;-57
2024/03/12 06:31:48;;;;;;;156.35;39.20;;;;;;;;;;5054857;28;20056;-58
2024/03/12 06:34:14;;;;;;;149.00;41.63;;;;;;;;;;5054703;28;20042;-58
2024/03/12 06:36:40;;;;;;;;;;;;;;;;;;5041052;28;20037;-59
2024/03/12 06:39:06;;;;;;;164.50;41.67;;;;;;;;;;5054562;28;19909;-59
2024/03/12 06:41:31;;;;;;;138.18;37.17;;;;;;;;;;5054303;28;20037;-58
2024/03/12 06:43:58;;;;;;;143.57;37.05;;;;;;;;;;5065920;28;20029;-59
2024/03/12 06:46:23;;;;;;;157.07;41.47;;;;;;;;;;5042649;28;20030;-59
2024/03/12 06:48:48;;;;;;;164.03;39.70;;;;;;;;;;5053896;28;20271;-57
2024/03/12 06:51:15;;;;;;;167.43;44.38;;;;;;;;;;5056813;28;20057;-58
2024/03/12 06:53:40;;;;;;;;;;;;;;;;;;5060993;28;20034;-59
2024/03/12 06:56:07;;;;;;;179.87;41.67;;;;;;;;;;5053883;28;19937;-58
2024/03/12 06:58:32;;;;;;;170.05;43.75;;;;;;;;;;5059876;28;20034;-57
2024/03/12 07:00:57;;;;;;;184.67;47.27;;;;;;;;;;5042986;28;20099;-55
2024/03/12 07:03:24;;;;;;;173.20;44.80;;;;;;;;;;5060442;28;20064;-57
2024/03/12 07:05:50;;;;;;;184.38;47.25;;;;;;;;;;5049695;28;20038;-59
2024/03/12 07:08:17;;;;;;;184.77;45.15;;;;;;;;;;5052746;28;20112;-58
2024/03/12 07:10:42;;;;;;;170.63;44.92;;;;;;;;;;5053106;28;20030;-58
2024/03/12 07:13:08;;;;;;;192.68;46.83;;;;;;;;;;5064106;28;20056;-59
2024/03/12 07:15:34;;;;;;;184.33;46.67;;;;;;;;;;5061712;28;20037;-58
2024/03/12 07:18:00;;;;;;;158.77;43.53;;;;;;;;;;5060647;28;20035;-57
2024/03/12 07:20:27;;;;;;;157.47;44.50;;;;;;;;;;5060185;28;20053;-57
2024/03/12 07:22:54;;;;;;;163.87;39.60;;;;;;;;;;5067059;28;20041;-58
2024/03/12 07:25:20;;;;;;;137.50;38.67;;;;;;;;;;5059867;28;20282;-58
2024/03/12 07:27:46;;;;;;;133.32;40.00;;;;;;;;;;5047656;28;20293;-58
2024/03/12 07:30:12;;;;;;;133.83;37.60;;;;;;;;;;5059604;28;20037;-58
2024/03/12 07:32:39;;;;;;;130.32;38.92;;;;;;;;;;5062570;28;20021;-58
2024/03/12 07:35:04;;;;;;;123.15;36.97;;;;;;;;;;5061276;28;20097;-59
2024/03/12 07:37:30;;;;;;;127.35;34.47;;;;;;;;;;5050395;28;20026;-60
2024/03/12 07:39:56;;;;;;;111.37;33.00;;;;;;;;;;5058657;28;20104;-58
2024/03/12 07:42:21;;;;;;;104.35;34.85;;;;;;;;;;5052431;28;20072;-57
2024/03/12 07:44:47;;;;;;;106.90;33.93;;;;;;;;;;5064469;28;20034;-55
2024/03/12 07:47:16;;;;;;;103.63;35.75;;;;;;;;;;5060994;28;20022;-57
2024/03/12 07:49:41;;;;;;;101.07;33.83;;;;;;;;;;5059849;28;20056;-56
2024/03/12 07:52:11;;;;;;;113.88;35.53;;;;;;;;;;5058668;28;20259;-59
2024/03/12 07:54:40;;;;;;;114.20;34.17;;;;;;;;;;5062951;28;20041;-59
2024/03/12 07:57:07;;;;;;;116.13;34.25;;;;;;;;;;5064227;28;20037;-59
2024/03/12 07:59:33;;;;;;;114.43;35.25;;;;;;;;;;5059632;28;20025;-57
2024/03/12 08:02:03;;;;;;;103.83;34.10;;;;;;;;;;5067593;28;20048;-58
2024/03/12 08:04:29;;;;;;;110.90;32.47;;;;;;;;;;5069623;28;20119;-56
2024/03/12 08:06:54;;;;;;;89.33;29.37;;;;;;;;;;5059279;28;20037;-55
2024/03/12 08:09:19;;;;;;;87.17;28.40;;;;;;;;;;5059803;28;20025;-54
2024/03/12 08:11:48;;;;;;;87.97;28.15;;;;;;;;;;5056594;28;20013;-58
2024/03/12 08:14:15;;;;;;;82.63;27.10;;;;;;;;;;5061097;28;20041;-57
2024/03/12 08:16:41;;;;;;;69.03;26.13;;;;;;;;;;5056273;28;20101;-55
2024/03/12 08:19:07;;;;;;;85.40;29.37;;;;;;;;;;5055613;28;20041;-56
2024/03/12 08:21:32;;;;;;;96.57;25.48;;;;;;;;;;5058380;28;20032;-59
2024/03/12 08:23:58;;;;;;;84.80;27.95;;;;;;;;;;5054954;28;20067;-60
2024/03/12 08:26:27;;;;;;;74.60;26.15;;;;;;;;;;5064143;28;20032;-55
2024/03/12 08:28:55;;;;;;;80.47;25.93;;;;;;;;;;5064497;28;20025;-56
2024/03/12 08:31:22;;;;;;;73.13;25.37;;;;;;;;;;5058309;28;20261;-56
2024/03/12 08:33:48;;;;;;;79.10;26.40;;;;;;;;;;5056268;28;20266;-56
2024/03/12 08:36:13;;;;;;;76.27;24.67;;;;;;;;;;5055834;28;20033;-55
2024/03/12 08:38:39;;;;;;;62.20;24.87;;;;;;;;;;5056510;28;20316;-56
2024/03/12 08:41:04;;;;;;;68.53;23.80;;;;;;;;;;5053964;28;20037;-58
2024/03/12 08:43:29;;;;;;;59.37;23.30;;;;;;;;;;5051793;28;20037;-54
2024/03/12 08:45:55;;;;;;;72.67;25.77;;;;;;;;;;5056243;28;20041;-57
2024/03/12 08:48:21;;;;;;;72.60;24.90;;;;;;;;;;5055399;28;20029;-59
2024/03/12 08:50:46;;;;;;;65.27;24.90;;;;;;;;;;5059232;28;20036;-54
2024/03/12 08:53:12;;;;;;;71.60;26.25;;;;;;;;;;5058948;28;20060;-59
2024/03/12 08:55:37;;;;;;;80.90;26.80;;;;;;;;;;5051665;28;20030;-57
2024/03/12 08:58:04;;;;;;;70.95;25.05;;;;;;;;;;5050715;28;20381;-60
2024/03/12 09:00:30;;;;;;;69.63;25.93;;;;;;;;;;5054226;28;20037;-56
2024/03/12 09:02:55;;;;;;;76.13;26.83;;;;;;;;;;5051206;28;20270;-56
2024/03/12 09:05:21;;;;;;;83.07;28.07;;;;;;;;;;5054765;28;20286;-58
2024/03/12 09:07:46;;;;;;;79.60;27.55;;;;;;;;;;5055581;28;20040;-57
2024/03/12 09:10:12;;;;;;;68.97;29.08;;;;;;;;;;5055846;28;20064;-57
2024/03/12 09:12:38;;;;;;;72.63;25.20;;;;;;;;;;5055574;28;20030;-54
2024/03/12 09:15:04;;;;;;;71.28;26.30;;;;;;;;;;5056458;28;20037;-57
2024/03/12 09:17:30;;;;;;;76.60;28.67;;;;;;;;;;5057177;28;20040;-56
2024/03/12 09:19:57;;;;;;;77.95;29.13;;;;;;;;;;5055882;28;20040;-56
2024/03/12 09:22:22;;;;;;;86.43;26.65;;;;;;;;;;5055668;28;20025;-55
2024/03/12 09:24:49;;;;;;;61.70;25.83;;;;;;;;;;5065717;28;20042;-56
2024/03/12 09:27:14;;;;;;;77.07;26.20;;;;;;;;;;5058190;28;20101;-54
2024/03/12 09:29:41;;;;;;;76.07;27.40;;;;;;;;;;5055549;28;20262;-56
2024/03/12 09:32:06;;;;;;;75.65;27.15;;;;;;;;;;5058393;28;20303;-54
2024/03/12 09:34:35;;;;;;;69.03;26.00;;;;;;;;;;5061243;28;20040;-59
2024/03/12 09:37:00;;;;;;;71.17;26.37;;;;;;;;;;5058460;28;20267;-58
2024/03/12 09:39:27;;;;;;;67.47;25.42;;;;;;;;;;5055446;28;20337;-54
2024/03/12 09:41:53;;;;;;;67.97;26.47;;;;;;;;;;5057485;28;20041;-58
2024/03/12 09:44:20;;;;;;;57.67;22.92;;;;;;;;;;5064291;28;20299;-56
2024/03/12 09:46:46;;;;;;;61.58;24.08;;;;;;;;;;5054559;28;20044;-54
2024/03/12 09:49:14;;;;;;;62.47;23.95;;;;;;;;;;5055041;28;20084;-54
2024/03/12 09:51:40;;;;;;;68.47;24.33;;;;;;;;;;5051128;28;20116;-56
2024/03/12 09:54:05;;;;;;;63.88;24.73;;;;;;;;;;5061165;28;20262;-56
2024/03/12 09:56:34;;;;;;;70.07;27.07;;;;;;;;;;5053782;28;20064;-58
2024/03/12 09:59:00;;;;;;;64.87;24.43;;;;;;;;;;5053909;28;20056;-56
2024/03/12 10:01:25;;;;;;;59.90;24.07;;;;;;;;;;5058072;28;20275;-55
2024/03/12 10:03:52;;;;;;;54.00;23.13;;;;;;;;;;5048858;28;20428;-55
2024/03/12 10:06:18;;;;;;;60.10;24.93;;;;;;;;;;5053722;28;20034;-54
2024/03/12 10:08:46;;;;;;;56.93;21.20;;;;;;;;;;5054002;28;20637;-54
2024/03/12 10:11:20;;;;;;;52.07;23.27;;;;;;;;;;5054554;28;20060;-59
2024/03/12 10:13:55;;;;;;;56.77;22.33;;;;;;;;;;5055602;28;20281;-56
2024/03/12 10:16:24;;;;;;;52.60;23.07;;;;;;;;;;5052861;28;20305;-55
2024/03/12 10:19:09;;;;;;;57.93;23.77;;;;;;;;;;5053744;28;20334;-57
2024/03/12 10:21:35;;;;;;;62.43;24.50;;;;;;;;;;5054425;28;20286;-57
2024/03/12 10:24:10;;;;;;;59.80;23.50;;;;;;;;;;5053122;28;20305;-58
2024/03/12 10:26:36;;;;;;;50.77;21.93;;;;;;;;;;5058868;28;20057;-57
2024/03/12 10:29:12;;;;;;;51.43;23.30;;;;;;;;;;5054399;28;20276;-58
2024/03/12 10:31:43;;;;;;;47.25;20.70;;;;;;;;;;5046078;28;20263;-56
2024/03/12 10:34:17;;;;;;;51.07;22.00;;;;;;;;;;5059369;28;20072;-55
2024/03/12 10:36:43;;;;;;;49.93;21.50;;;;;;;;;;5054064;28;20274;-57
2024/03/12 10:39:12;;;;;;;44.53;20.08;;;;;;;;;;5048118;28;20263;-57
2024/03/12 10:41:38;;;;;;;48.40;20.53;;;;;;;;;;5054333;28;20030;-56
2024/03/12 10:44:12;;;;;;;45.95;20.08;;;;;;;;;;5054167;28;20265;-55
2024/03/12 10:46:39;;;;;;;47.00;19.97;;;;;;;;;;5051938;28;20053;-57
2024/03/12 10:49:09;;;;;;;48.30;21.67;;;;;;;;;;5051608;28;20274;-55
2024/03/12 10:51:39;;;;;;;51.23;21.43;;;;;;;;;;5051724;28;20018;-55
2024/03/12 10:54:05;;;;;;;55.77;21.77;;;;;;;;;;5063014;28;20296;-56
2024/03/12 10:56:31;;;;;;;53.33;22.30;;;;;;;;;;5041967;28;20251;-58
2024/03/12 10:58:57;;;;;;;47.33;20.43;;;;;;;;;;5053831;28;20267;-56
2024/03/12 11:01:23;;;;;;;40.23;18.93;;;;;;;;;;5053202;28;20298;-54
2024/03/12 11:03:55;;;;;;;48.78;21.90;;;;;;;;;;5059728;28;20258;-55
2024/03/12 11:06:21;;;;;;;48.70;20.03;;;;;;;;;;5055207;28;20030;-57
2024/03/12 11:08:49;;;;;;;49.00;21.87;;;;;;;;;;5050320;28;20286;-57
2024/03/12 11:11:14;;;;;;;58.17;21.50;;;;;;;;;;5052962;28;20337;-55
2024/03/12 11:13:40;;;;;;;47.00;20.05;;;;;;;;;;5053913;28;20365;-56
2024/03/12 11:16:19;;;;;;;54.20;20.67;;;;;;;;;;5055554;28;20029;-58
2024/03/12 11:18:44;;;;;;;43.87;20.50;;;;;;;;;;5053435;28;20056;-55
2024/03/12 11:21:17;;;;;;;48.22;20.90;;;;;;;;;;5058237;28;20274;-58
2024/03/12 11:23:44;;;;;;;39.67;17.33;;;;;;;;;;5057926;28;20037;-56
2024/03/12 11:26:13;;;;;;;38.60;18.10;;;;;;;;;;5052680;28;20271;-58
2024/03/12 11:28:48;;;;;;;40.07;18.37;;;;;;;;;;5060889;28;20266;-58
2024/03/12 11:31:14;;;;;;;39.60;19.07;;;;;;;;;;5052518;28;20273;-55
2024/03/12 11:33:44;;;;;;;45.97;17.70;;;;;;;;;;5050870;28;20258;-57
2024/03/12 11:36:19;;;;;;;41.77;18.27;;;;;;;;;;5052056;28;20033;-57
2024/03/12 11:38:45;;;;;;;40.40;18.03;;;;;;;;;;5060447;28;20260;-56
2024/03/12 11:41:11;;;;;;;35.17;17.88;;;;;;;;;;5052050;28;20258;-56
2024/03/12 11:43:37;;;;;;;38.10;18.38;;;;;;;;;;5052724;28;20088;-57
2024/03/12 11:46:07;;;;;;;40.17;18.40;;;;;;;;;;5051880;28;20029;-55
2024/03/12 11:48:36;;;;;;;40.30;17.03;;;;;;;;;;5056796;28;20025;-53
2024/03/12 11:51:04;;;;;;;37.70;16.97;;;;;;;;;;5056245;28;20068;-55
2024/03/12 11:53:31;;;;;;;43.17;17.83;;;;;;;;;;5058097;28;20040;-56
2024/03/12 11:56:10;;;;;;;42.57;19.13;;;;;;;;;;5056733;28;20089;-57
2024/03/12 11:58:46;;;;;;;37.77;19.17;;;;;;;;;;5054525;28;20097;-55
2024/03/12 12:01:18;;;;;;;42.45;20.48;;;;;;;;;;5054403;28;20056;-57
2024/03/12 12:03:45;;;;;;;40.53;20.00;;;;;;;;;;5061452;28;20037;-57
2024/03/12 12:06:10;;;;;;;49.63;20.80;;;;;;;;;;5056995;28;20045;-57
2024/03/12 12:08:39;;;;;;;44.65;20.90;;;;;;;;;;5057187;28;20037;-58
2024/03/12 12:11:09;;;;;;;36.93;19.80;;;;;;;;;;5056697;28;20059;-61
2024/03/12 12:13:35;;;;;;;40.03;19.77;;;;;;;;;;5058714;28;20025;-58
2024/03/12 12:16:07;;;;;;;43.40;20.75;;;;;;;;;;5056379;28;20093;-57
2024/03/12 12:18:34;;;;;;;40.97;20.43;;;;;;;;;;5056916;28;20048;-57
2024/03/12 12:21:03;;;;;;;41.63;20.07;;;;;;;;;;5056800;28;20093;-56
2024/03/12 12:23:29;;;;;;;42.50;20.40;;;;;;;;;;5061201;28;20034;-58
2024/03/12 12:25:55;;;;;;;;;;;;;;;;;;5057321;28;20037;-54
2024/03/12 12:28:22;;;;;;;39.80;19.73;;;;;;;;;;5063425;28;19967;-54
2024/03/12 12:30:49;;;;;;;43.47;20.67;;;;;;;;;;5058010;28;20040;-57
2024/03/12 12:33:16;;;;;;;42.40;20.93;;;;;;;;;;5057084;28;20030;-57
2024/03/12 12:35:42;;;;;;;;;;;;;;;;;;5056019;28;20048;-55
2024/03/12 12:38:09;;;;;;;42.87;21.70;;;;;;;;;;5056854;28;19909;-57
2024/03/12 12:40:35;;;;;;;42.63;20.77;;;;;;;;;;5056131;28;20064;-56
2024/03/12 12:43:05;;;;;;;39.20;19.87;;;;;;;;;;5056721;28;20036;-54
2024/03/12 12:45:30;;;;;;;46.40;20.33;;;;;;;;;;5068519;28;20030;-57
2024/03/12 12:47:56;;;;;;;40.30;19.10;;;;;;;;;;5045963;28;20090;-57
2024/03/12 12:50:28;;;;;;;39.95;19.13;;;;;;;;;;5057313;28;20091;-56
2024/03/12 12:52:56;;;;;;;33.37;17.70;;;;;;;;;;5055443;28;20029;-58
2024/03/12 12:55:22;;;;;;;43.80;19.23;;;;;;;;;;5062232;28;20041;-56
2024/03/12 12:57:56;;;;;;;36.58;18.60;;;;;;;;;;5056058;28;20040;-57
2024/03/12 13:00:23;;;;;;;39.37;19.50;;;;;;;;;;5055852;28;20033;-56
2024/03/12 13:02:48;;;;;;;;;;;;;;;;;;5056548;28;20020;-56
2024/03/12 13:05:23;;;;;;;36.73;17.30;;;;;;;;;;5058521;28;19944;-55
2024/03/12 13:07:49;;;;;;;43.33;19.60;;;;;;;;;;5043362;28;20025;-56
2024/03/12 13:10:18;;;;;;;;;;;;;;;;;;5055994;28;20033;-53
2024/03/12 13:12:44;;;;;;;38.50;19.80;;;;;;;;;;5059606;28;19909;-57
2024/03/12 13:15:30;;;;;;;40.95;19.58;;;;;;;;;;5067717;28;20043;-55
2024/03/12 13:17:56;;;;;;;39.45;17.95;;;;;;;;;;5056176;28;20045;-56
2024/03/12 13:20:21;;;;;;;39.28;18.75;;;;;;;;;;5067490;28;20033;-57
2024/03/12 13:22:50;;;;;;;38.85;18.98;;;;;;;;;;5057662;28;20121;-55
2024/03/12 13:25:16;;;;;;;43.80;19.43;;;;;;;;;;5064638;28;20089;-57
2024/03/12 13:27:43;;;;;;;42.63;21.67;;;;;;;;;;5055943;28;20065;-56
2024/03/12 13:30:09;;;;;;;46.53;21.63;;;;;;;;;;5055525;28;20025;-57
2024/03/12 13:32:35;;;;;;;;;;;;;;;;;;5056311;28;20030;-55
2024/03/12 13:35:01;;;;;;;47.33;22.37;;;;;;;;;;5067154;28;19916;-58
2024/03/12 13:37:29;;;;;;;43.17;21.00;;;;;;;;;;5055711;28;20029;-57
2024/03/12 13:39:55;;;;;;;46.47;21.38;;;;;;;;;;5055272;28;20025;-57
2024/03/12 13:42:20;;;;;;;44.85;21.52;;;;;;;;;;5054425;28;20045;-57
2024/03/12 13:44:46;;;;;;;45.88;23.63;;;;;;;;;;5064391;28;20048;-55
2024/03/12 13:47:12;;;;;;;52.35;22.33;;;;;;;;;;5055503;28;20048;-57
2024/03/12 13:49:37;;;;;;;51.97;22.77;;;;;;;;;;5055468;28;20017;-57
2024/03/12 13:52:03;;;;;;;51.33;23.45;;;;;;;;;;5064401;28;20089;-56
2024/03/12 13:54:28;;;;;;;56.40;24.15;;;;;;;;;;5061559;28;20020;-57
2024/03/12 13:56:54;;;;;;;52.80;23.52;;;;;;;;;;5055042;28;20041;-56
2024/03/12 13:59:19;;;;;;;53.85;22.45;;;;;;;;;;5055443;28;20029;-57
2024/03/12 14:01:46;;;;;;;50.67;22.88;;;;;;;;;;5054861;28;20044;-54
2024/03/12 14:04:13;;;;;;;54.03;24.40;;;;;;;;;;5059409;28;20033;-58
2024/03/12 14:06:38;;;;;;;;;;;;;;;;;;5055006;28;20326;-57
2024/03/12 14:09:11;;;;;;;56.47;25.37;;;;;;;;;;5055462;28;19913;-55
2024/03/12 14:11:38;;;;;;;54.87;23.60;;;;;;;;;;5056449;28;20036;-55
2024/03/12 14:14:03;;;;;;;;;;;;;;;;;;5057439;28;20258;-54
2024/03/12 14:16:29;;;;;;;49.47;20.37;;;;;;;;;;5055284;28;19931;-55
2024/03/12 14:18:55;;;;;;;57.30;22.20;;;;;;;;;;5054789;28;20044;-55